createdAt,value
2017-11-12T00:01:02.154Z,100290.78
2017-11-12T00:03:37.013Z,100282.55
2017-11-12T00:06:12.037Z,100280.45
2017-11-12T00:08:46.793Z,100284.05
2017-11-12T00:11:21.913Z,100283.22
2017-11-12T00:13:56.936Z,100282.55
2017-11-12T00:16:31.828Z,100278.88
2017-11-12T00:19:06.634Z,100279.81
2017-11-12T00:21:42.101Z,100276.27
2017-11-12T00:24:16.794Z,100276.31
2017-11-12T00:26:51.297Z,100278.54
2017-11-12T00:29:26.194Z,100276.09
2017-11-12T00:32:00.825Z,100268.59
2017-11-12T00:34:35.629Z,100263.43
2017-11-12T00:37:10.305Z,100267.09
2017-11-12T00:39:45.117Z,100272.02
2017-11-12T00:42:19.657Z,100260.04
2017-11-12T00:44:54.092Z,100258.16
2017-11-12T00:47:29.157Z,100273.02
2017-11-12T00:50:03.817Z,100267.29
2017-11-12T00:52:38.718Z,100266.69
2017-11-12T00:55:13.504Z,100256.97
2017-11-12T00:57:48.245Z,100273.47
2017-11-12T01:00:23.907Z,100266.30
2017-11-12T01:02:58.581Z,100270.36
2017-11-12T01:05:33.353Z,100260.31
2017-11-12T01:08:08.468Z,100263.08
2017-11-12T01:10:43.128Z,100266.50
2017-11-12T01:13:18.233Z,100265.17
2017-11-12T01:15:53.261Z,100257.36
2017-11-12T01:18:28.266Z,100259.15
2017-11-12T01:21:03.161Z,100258.54
2017-11-12T01:23:37.897Z,100253.83
2017-11-12T01:26:13.001Z,100256.33
2017-11-12T01:28:47.797Z,100252.55
2017-11-12T01:31:22.577Z,100248.67
2017-11-12T01:33:57.382Z,100246.95
2017-11-12T01:36:32.308Z,100234.06
2017-11-12T01:39:07.114Z,100246.39
2017-11-12T01:41:41.982Z,100242.67
2017-11-12T01:44:16.833Z,100230.34
2017-11-12T01:46:52.432Z,100236.78
2017-11-12T01:49:27.229Z,100239.50
2017-11-12T01:52:01.610Z,100238.49
2017-11-12T01:54:36.514Z,100234.39
2017-11-12T01:57:10.977Z,100231.55
2017-11-12T01:59:45.690Z,100233.33
2017-11-12T02:02:20.441Z,100228.14
2017-11-12T02:04:55.174Z,100219.48
2017-11-12T02:07:29.780Z,100220.25
2017-11-12T02:10:04.184Z,100219.42
2017-11-12T02:12:38.610Z,100216.77
2017-11-12T02:15:14.440Z,100213.48
2017-11-12T02:17:50.029Z,100211.15
2017-11-12T02:20:24.861Z,100211.28
2017-11-12T02:22:59.329Z,100209.89
2017-11-12T02:25:33.477Z,100207.36
2017-11-12T02:28:08.248Z,100206.75
2017-11-12T02:30:43.203Z,100203.41
2017-11-12T02:33:18.000Z,100204.19
2017-11-12T02:35:52.609Z,100204.29
2017-11-12T02:38:27.308Z,100196.37
2017-11-12T02:41:01.898Z,100189.04
2017-11-12T02:43:36.858Z,100193.03
2017-11-12T02:46:11.477Z,100196.55
2017-11-12T02:48:46.221Z,100196.77
2017-11-12T02:51:20.960Z,100197.10
2017-11-12T02:53:55.708Z,100188.12
2017-11-12T02:56:30.129Z,100185.46
2017-11-12T02:59:05.239Z,100184.98
2017-11-12T03:01:40.166Z,100174.64
2017-11-12T03:04:14.971Z,100180.44
2017-11-12T03:06:49.823Z,100179.78
2017-11-12T03:09:24.785Z,100187.38
2017-11-12T03:11:59.385Z,100197.66
2017-11-12T03:14:33.977Z,100186.02
2017-11-12T03:17:09.213Z,100192.41
2017-11-12T03:19:43.961Z,100189.84
2017-11-12T03:22:18.689Z,100188.41
2017-11-12T03:24:53.345Z,100178.88
2017-11-12T03:27:28.006Z,100176.70
2017-11-12T03:30:03.133Z,100170.27
2017-11-12T03:32:37.930Z,100169.32
2017-11-12T03:35:12.726Z,100143.47
2017-11-12T03:37:47.132Z,100151.42
2017-11-12T03:40:22.084Z,100153.71
2017-11-12T03:42:56.989Z,100153.61
2017-11-12T03:45:31.673Z,100149.83
2017-11-12T03:48:06.773Z,100145.07
2017-11-12T03:50:41.150Z,100147.84
2017-11-12T03:53:15.682Z,100147.62
2017-11-12T03:55:51.029Z,100150.83
2017-11-12T03:58:25.369Z,100153.72
2017-11-12T04:00:59.449Z,100144.89
2017-11-12T04:03:34.098Z,100144.49
2017-11-12T04:06:08.865Z,100145.56
2017-11-12T04:08:43.434Z,100134.63
2017-11-12T04:11:18.008Z,100131.50
2017-11-12T04:13:53.000Z,100132.73
2017-11-12T04:16:28.170Z,100119.97
2017-11-12T04:19:03.743Z,100117.63
2017-11-12T04:21:37.976Z,100116.91
2017-11-12T04:24:12.629Z,100118.34
2017-11-12T04:26:47.680Z,100116.87
2017-11-12T04:29:22.417Z,100116.20
2017-11-12T04:31:57.141Z,100113.38
2017-11-12T04:34:32.260Z,100106.28
2017-11-12T04:37:07.079Z,100105.23
2017-11-12T04:39:41.767Z,100109.27
2017-11-12T04:42:16.858Z,100107.33
2017-11-12T04:44:51.922Z,100104.33
2017-11-12T04:47:26.881Z,100099.06
2017-11-12T04:50:01.705Z,100097.91
2017-11-12T04:52:36.510Z,100094.85
2017-11-12T04:55:11.072Z,100099.16
2017-11-12T04:57:45.806Z,100086.47
2017-11-12T05:00:20.309Z,100094.18
2017-11-12T05:02:54.306Z,100094.73
2017-11-12T05:05:28.353Z,100095.13
2017-11-12T05:08:03.485Z,100094.18
2017-11-12T05:10:38.042Z,100087.41
2017-11-12T05:13:13.208Z,100078.38
2017-11-12T05:15:48.061Z,100085.23
2017-11-12T05:18:22.745Z,100076.86
2017-11-12T05:20:57.469Z,100070.54
2017-11-12T05:23:32.580Z,100063.34
2017-11-12T05:26:07.097Z,100058.89
2017-11-12T05:28:42.189Z,100052.01
2017-11-12T05:31:16.885Z,100049.30
2017-11-12T05:33:51.794Z,100047.34
2017-11-12T05:36:26.518Z,100051.62
2017-11-12T05:39:01.225Z,100045.13
2017-11-12T05:41:35.817Z,100044.40
2017-11-12T05:44:11.432Z,100030.20
2017-11-12T05:46:46.904Z,100028.02
2017-11-12T05:49:21.804Z,100029.80
2017-11-12T05:51:56.534Z,100021.88
2017-11-12T05:54:31.166Z,100025.50
2017-11-12T05:57:06.162Z,100019.14
2017-11-12T05:59:41.074Z,100013.22
2017-11-12T06:02:16.088Z,100004.19
2017-11-12T06:04:51.302Z,100006.58
2017-11-12T06:07:25.732Z,99998.38
2017-11-12T06:10:00.545Z,99996.92
2017-11-12T06:12:35.532Z,99987.66
2017-11-12T06:15:09.978Z,99985.18
2017-11-12T06:17:45.277Z,99976.64
2017-11-12T06:20:20.094Z,99978.17
2017-11-12T06:22:55.509Z,99968.86
2017-11-12T06:25:30.792Z,99962.09
2017-11-12T06:28:05.569Z,99955.76
2017-11-12T06:30:40.477Z,99951.94
2017-11-12T06:33:15.116Z,99944.71
2017-11-12T06:35:50.109Z,99938.83
2017-11-12T06:38:25.219Z,99940.83
2017-11-12T06:41:00.293Z,99934.57
2017-11-12T06:43:35.174Z,99934.41
2017-11-12T06:46:10.377Z,99930.42
2017-11-12T06:48:45.601Z,99914.63
2017-11-12T06:51:20.528Z,99908.13
2017-11-12T06:53:55.559Z,99899.05
2017-11-12T06:56:30.871Z,99896.17
2017-11-12T06:59:05.786Z,99886.06
2017-11-12T07:01:40.405Z,99881.84
2017-11-12T07:04:15.517Z,99877.57
2017-11-12T07:06:50.635Z,99871.69
2017-11-12T07:09:25.607Z,99873.75
2017-11-12T07:12:00.717Z,99867.87
2017-11-12T07:14:35.737Z,99863.52
2017-11-12T07:17:10.664Z,99856.16
2017-11-12T07:19:45.689Z,99859.03
2017-11-12T07:22:20.754Z,99859.02
2017-11-12T07:24:56.525Z,99852.72
2017-11-12T07:27:31.333Z,99852.26
2017-11-12T07:30:06.158Z,99853.63
2017-11-12T07:32:41.314Z,99855.69
2017-11-12T07:35:16.429Z,99855.03
2017-11-12T07:37:51.846Z,99853.40
2017-11-12T07:40:27.042Z,99851.14
2017-11-12T07:43:01.845Z,99850.53
2017-11-12T07:45:36.398Z,99854.56
2017-11-12T07:48:11.569Z,99849.44
2017-11-12T07:50:46.397Z,99846.08
2017-11-12T07:53:20.814Z,99846.03
2017-11-12T07:55:55.837Z,99838.41
2017-11-12T07:58:30.854Z,99837.86
2017-11-12T08:01:06.038Z,99828.21
2017-11-12T08:03:40.489Z,99834.00
2017-11-12T08:06:15.510Z,99826.37
2017-11-12T08:08:49.911Z,99816.66
2017-11-12T08:11:24.990Z,99822.84
2017-11-12T08:13:59.689Z,99820.77
2017-11-12T08:16:34.810Z,99822.09
2017-11-12T08:19:09.822Z,99818.83
2017-11-12T08:21:44.982Z,99820.23
2017-11-12T08:24:19.956Z,99815.33
2017-11-12T08:26:55.054Z,99808.03
2017-11-12T08:29:30.314Z,99806.14
2017-11-12T08:32:05.136Z,99806.46
2017-11-12T08:34:39.585Z,99811.77
2017-11-12T08:37:14.725Z,99818.44
2017-11-12T08:39:49.777Z,99797.36
2017-11-12T08:42:24.786Z,99799.79
2017-11-12T08:44:59.801Z,99796.34
2017-11-12T08:47:35.217Z,99795.80
2017-11-12T08:50:10.157Z,99797.42
2017-11-12T08:52:45.144Z,99781.98
2017-11-12T08:55:19.293Z,99780.60
2017-11-12T08:57:54.273Z,99775.96
2017-11-12T09:00:29.564Z,99780.02
2017-11-12T09:03:04.106Z,99780.48
2017-11-12T09:05:40.001Z,99777.41
2017-11-12T09:08:15.569Z,99773.22
2017-11-12T09:10:50.590Z,99775.30
2017-11-12T09:13:25.894Z,99773.03
2017-11-12T09:16:00.507Z,99768.69
2017-11-12T09:18:35.557Z,99764.31
2017-11-12T09:21:10.113Z,99761.27
2017-11-12T09:23:44.943Z,99752.82
2017-11-12T09:26:19.758Z,99745.52
2017-11-12T09:28:54.377Z,99739.80
2017-11-12T09:31:29.189Z,99729.79
2017-11-12T09:34:03.781Z,99730.05
2017-11-12T09:36:38.543Z,99727.56
2017-11-12T09:39:12.777Z,99710.86
2017-11-12T09:41:48.146Z,99703.01
2017-11-12T09:44:22.793Z,99704.30
2017-11-12T09:46:59.733Z,99696.31
2017-11-12T09:49:33.841Z,99694.66
2017-11-12T09:52:09.037Z,99689.86
2017-11-12T09:54:44.342Z,99680.77
2017-11-12T09:57:19.337Z,99686.92
2017-11-12T09:59:54.358Z,99681.18
2017-11-12T10:02:29.366Z,99674.73
2017-11-12T10:05:04.312Z,99668.48
2017-11-12T10:07:39.304Z,99668.17
2017-11-12T10:10:14.413Z,99657.83
2017-11-12T10:12:49.765Z,99650.00
2017-11-12T10:15:24.955Z,99643.48
2017-11-12T10:18:01.181Z,99631.17
2017-11-12T10:20:36.249Z,99624.25
2017-11-12T10:23:11.370Z,99621.41
2017-11-12T10:25:46.350Z,99614.51
2017-11-12T10:28:21.607Z,99619.15
2017-11-12T10:30:57.470Z,99611.14
2017-11-12T10:33:32.459Z,99598.02
2017-11-12T10:36:07.764Z,99601.23
2017-11-12T10:38:42.669Z,99600.03
2017-11-12T10:41:17.697Z,99594.12
2017-11-12T10:43:52.821Z,99589.97
2017-11-12T10:46:28.264Z,99582.13
2017-11-12T10:49:03.153Z,99578.39
2017-11-12T10:51:38.361Z,99576.49
2017-11-12T10:54:13.468Z,99567.33
2017-11-12T10:56:48.000Z,99565.09
2017-11-12T10:59:22.921Z,99575.13
2017-11-12T11:01:57.752Z,99579.19
2017-11-12T11:04:32.645Z,99576.27
2017-11-12T11:07:07.613Z,99570.27
2017-11-12T11:09:42.025Z,99567.04
2017-11-12T11:12:17.151Z,99555.83
2017-11-12T11:14:53.005Z,99554.16
2017-11-12T11:17:27.901Z,99546.47
2017-11-12T11:20:03.085Z,99546.70
2017-11-12T11:22:37.793Z,99538.81
2017-11-12T11:25:12.889Z,99537.81
2017-11-12T11:27:47.718Z,99529.56
2017-11-12T11:30:23.378Z,99520.71
2017-11-12T11:32:58.348Z,99527.80
2017-11-12T11:35:33.123Z,99527.20
2017-11-12T11:38:08.304Z,99515.34
2017-11-12T11:40:43.607Z,99516.88
2017-11-12T11:43:18.229Z,99518.98
2017-11-12T11:45:53.817Z,99509.56
2017-11-12T11:48:29.141Z,99504.35
2017-11-12T11:51:04.054Z,99512.56
2017-11-12T11:53:39.294Z,99515.30
2017-11-12T11:56:14.816Z,99513.84
2017-11-12T11:58:49.905Z,99514.67
2017-11-12T12:01:25.691Z,99519.34
2017-11-12T12:04:00.985Z,99517.55
2017-11-12T12:06:35.968Z,99516.02
2017-11-12T12:09:11.199Z,99503.95
2017-11-12T12:11:46.402Z,99489.25
2017-11-12T12:14:21.583Z,99494.45
2017-11-12T12:16:56.234Z,99489.65
2017-11-12T12:19:31.204Z,99495.86
2017-11-12T12:22:06.013Z,99494.33
2017-11-12T12:24:41.106Z,99495.43
2017-11-12T12:27:15.993Z,99490.08
2017-11-12T12:29:50.988Z,99481.70
2017-11-12T12:32:26.100Z,99480.80
2017-11-12T12:35:01.202Z,99472.20
2017-11-12T12:37:36.097Z,99472.57
2017-11-12T12:40:11.131Z,99462.18
2017-11-12T12:42:46.518Z,99462.48
2017-11-12T12:45:21.709Z,99460.48
2017-11-12T12:47:56.097Z,99465.79
2017-11-12T12:50:30.597Z,99465.05
2017-11-12T12:53:05.497Z,99466.09
2017-11-12T12:55:40.798Z,99462.34
2017-11-12T12:58:15.806Z,99467.33
2017-11-12T13:00:51.053Z,99464.38
2017-11-12T13:03:25.874Z,99469.49
2017-11-12T13:06:00.485Z,99470.03
2017-11-12T13:08:35.787Z,99468.63
2017-11-12T13:11:11.017Z,99468.52
2017-11-12T13:13:46.017Z,99471.46
2017-11-12T13:16:21.056Z,99474.00
2017-11-12T13:18:56.072Z,99474.10
2017-11-12T13:21:30.743Z,99472.66
2017-11-12T13:24:05.070Z,99468.59
2017-11-12T13:26:39.325Z,99471.56
2017-11-12T13:29:14.437Z,99471.86
2017-11-12T13:31:49.066Z,99469.16
2017-11-12T13:34:24.046Z,99474.23
2017-11-12T13:36:58.718Z,99467.38
2017-11-12T13:39:33.816Z,99462.11
2017-11-12T13:42:08.653Z,99467.75
2017-11-12T13:44:43.437Z,99462.39
2017-11-12T13:47:18.706Z,99460.77
2017-11-12T13:49:53.415Z,99466.33
2017-11-12T13:52:28.435Z,99468.71
2017-11-12T13:55:03.814Z,99461.06
2017-11-12T13:57:38.760Z,99465.84
2017-11-12T14:00:14.034Z,99462.21
2017-11-12T14:02:49.633Z,99471.86
2017-11-12T14:05:24.518Z,99476.23
2017-11-12T14:07:59.081Z,99476.60
2017-11-12T14:10:34.070Z,99478.60
2017-11-12T14:13:08.834Z,99477.50
2017-11-12T14:15:43.725Z,99477.88
2017-11-12T14:18:18.916Z,99474.90
2017-11-12T14:20:54.189Z,99478.24
2017-11-12T14:23:28.694Z,99472.17
2017-11-12T14:26:03.769Z,99476.55
2017-11-12T14:28:38.649Z,99479.95
2017-11-12T14:31:13.640Z,99481.39
2017-11-12T14:33:48.506Z,99479.02
2017-11-12T14:36:24.285Z,99486.06
2017-11-12T14:38:59.087Z,99493.78
2017-11-12T14:41:34.117Z,99488.99
2017-11-12T14:44:09.025Z,99493.84
2017-11-12T14:46:43.946Z,99495.38
2017-11-12T14:49:18.850Z,99501.31
2017-11-12T14:51:53.672Z,99503.28
2017-11-12T14:54:28.630Z,99504.18
2017-11-12T14:57:03.789Z,99502.72
2017-11-12T14:59:38.437Z,99508.61
2017-11-12T15:02:13.593Z,99506.50
2017-11-12T15:04:48.397Z,99509.70
2017-11-12T15:07:22.989Z,99509.63
2017-11-12T15:09:57.841Z,99517.03
2017-11-12T15:12:32.472Z,99506.77
2017-11-12T15:15:07.189Z,99511.39
2017-11-12T15:17:42.105Z,99513.17
2017-11-12T15:20:17.086Z,99513.44
2017-11-12T15:22:51.981Z,99514.99
2017-11-12T15:25:26.785Z,99525.06
2017-11-12T15:28:01.770Z,99520.40
2017-11-12T15:30:36.578Z,99516.54
2017-11-12T15:33:11.302Z,99522.80
2017-11-12T15:35:46.412Z,99520.55
2017-11-12T15:38:21.607Z,99521.27
2017-11-12T15:40:56.458Z,99523.77
2017-11-12T15:43:31.590Z,99525.09
2017-11-12T15:46:06.394Z,99522.89
2017-11-12T15:48:41.561Z,99529.50
2017-11-12T15:51:16.651Z,99529.41
2017-11-12T15:53:51.498Z,99529.52
2017-11-12T15:56:27.307Z,99531.74
2017-11-12T15:59:01.986Z,99532.09
2017-11-12T16:01:36.947Z,99534.10
2017-11-12T16:04:11.733Z,99536.47
2017-11-12T16:06:46.571Z,99532.45
2017-11-12T16:09:22.413Z,99538.89
2017-11-12T16:11:57.369Z,99533.08
2017-11-12T16:14:32.146Z,99541.19
2017-11-12T16:17:07.032Z,99542.52
2017-11-12T16:19:41.829Z,99547.19
2017-11-12T16:22:16.591Z,99554.30
2017-11-12T16:24:51.287Z,99549.39
2017-11-12T16:27:26.166Z,99557.45
2017-11-12T16:30:01.362Z,99555.42
2017-11-12T16:32:37.451Z,99567.48
2017-11-12T16:35:12.925Z,99570.83
2017-11-12T16:37:47.734Z,99576.98
2017-11-12T16:40:22.649Z,99579.15
2017-11-12T16:42:57.470Z,99582.08
2017-11-12T16:45:32.681Z,99591.16
2017-11-12T16:48:07.894Z,99588.49
2017-11-12T16:50:43.041Z,99590.23
2017-11-12T16:53:18.132Z,99599.18
2017-11-12T16:55:53.269Z,99606.89
2017-11-12T16:58:28.198Z,99601.48
2017-11-12T17:01:03.058Z,99606.16
2017-11-12T17:03:38.277Z,99610.11
2017-11-12T17:06:12.897Z,99605.73
2017-11-12T17:08:48.117Z,99611.14
2017-11-12T17:11:23.322Z,99608.38
2017-11-12T17:13:58.346Z,99614.77
2017-11-12T17:16:33.499Z,99615.89
2017-11-12T17:19:08.266Z,99622.41
2017-11-12T17:21:43.186Z,99627.45
2017-11-12T17:24:18.357Z,99634.96
2017-11-12T17:26:53.446Z,99635.06
2017-11-12T17:29:28.808Z,99637.27
2017-11-12T17:32:03.723Z,99651.40
2017-11-12T17:34:38.371Z,99660.53
2017-11-12T17:37:13.851Z,99663.08
2017-11-12T17:39:48.982Z,99661.36
2017-11-12T17:42:23.779Z,99667.70
2017-11-12T17:44:58.300Z,99670.56
2017-11-12T17:47:33.109Z,99676.86
2017-11-12T17:50:08.133Z,99682.58
2017-11-12T17:52:43.141Z,99689.04
2017-11-12T17:55:18.370Z,99694.91
2017-11-12T17:57:53.274Z,99695.16
2017-11-12T18:00:28.597Z,99701.96
2017-11-12T18:03:03.258Z,99703.92
2017-11-12T18:05:38.470Z,99703.79
2017-11-12T18:08:13.461Z,99713.58
2017-11-12T18:10:48.563Z,99721.84
2017-11-12T18:13:23.622Z,99725.59
2017-11-12T18:15:59.462Z,99729.36
2017-11-12T18:18:34.425Z,99723.08
2017-11-12T18:21:09.457Z,99742.72
2017-11-12T18:23:44.554Z,99740.63
2017-11-12T18:26:19.742Z,99750.30
2017-11-12T18:28:54.137Z,99753.06
2017-11-12T18:31:29.040Z,99752.69
2017-11-12T18:34:04.313Z,99765.55
2017-11-12T18:36:39.049Z,99770.80
2017-11-12T18:39:14.066Z,99776.77
2017-11-12T18:41:48.885Z,99781.11
2017-11-12T18:44:23.970Z,99786.21
2017-11-12T18:46:58.694Z,99792.83
2017-11-12T18:49:33.202Z,99793.52
2017-11-12T18:52:08.094Z,99791.18
2017-11-12T18:54:46.251Z,99796.39
2017-11-12T19:10:58.169Z,99831.58
2017-11-12T19:13:32.969Z,99828.53
2017-11-12T19:16:07.721Z,99844.31
2017-11-12T19:32:13.064Z,99872.77
2017-11-12T19:34:47.892Z,99876.70
2017-11-12T19:37:22.860Z,99879.83
2017-11-12T19:39:57.881Z,99881.64
2017-11-12T19:42:32.892Z,99881.91
2017-11-12T19:45:07.882Z,99889.23
2017-11-12T19:47:43.130Z,99891.97
2017-11-12T19:50:18.368Z,99896.94
2017-11-12T19:52:53.617Z,99897.37
2017-11-12T19:55:28.669Z,99905.84
2017-11-12T19:58:03.557Z,99895.23
2017-11-12T20:00:38.930Z,99913.54
2017-11-12T20:03:13.872Z,99923.75
2017-11-12T20:05:49.008Z,99925.72
2017-11-12T20:08:24.053Z,99926.09
2017-11-12T20:10:58.865Z,99934.10
2017-11-12T20:13:34.128Z,99934.26
2017-11-12T20:16:09.004Z,99941.69
2017-11-12T20:18:43.995Z,99954.36
2017-11-12T20:21:19.232Z,99954.85
2017-11-12T20:23:54.569Z,99953.40
2017-11-12T20:26:29.872Z,99964.08
2017-11-12T20:29:04.562Z,99979.67
2017-11-12T20:31:39.381Z,99970.00
2017-11-12T20:34:14.117Z,99970.95
2017-11-12T20:36:48.940Z,99973.62
2017-11-12T20:39:24.042Z,99979.14
2017-11-12T20:41:59.027Z,99980.42
2017-11-12T20:44:33.921Z,99991.89
2017-11-12T20:47:08.816Z,99994.56
2017-11-12T20:49:43.267Z,100002.12
2017-11-12T20:52:18.989Z,99997.61
2017-11-12T20:54:53.891Z,100010.02
2017-11-12T20:57:28.628Z,100011.58
2017-11-12T21:00:03.411Z,100019.05
2017-11-12T21:02:38.120Z,100027.06
2017-11-12T21:05:14.372Z,100018.98
2017-11-12T21:07:48.593Z,100018.09
2017-11-12T21:10:23.616Z,100024.88
2017-11-12T21:12:58.340Z,100028.77
2017-11-12T21:15:33.280Z,100033.73
2017-11-12T21:18:08.385Z,100042.30
2017-11-12T21:20:43.257Z,100034.11
2017-11-12T21:23:24.055Z,100038.82
2017-11-12T21:25:58.508Z,100043.67
2017-11-12T21:28:43.170Z,100049.83
2017-11-12T21:31:21.676Z,100064.09
2017-11-12T21:33:58.004Z,100060.31
2017-11-12T21:36:45.977Z,100059.56
2017-11-12T21:39:21.077Z,100063.89
2017-11-12T21:41:56.029Z,100067.52
2017-11-12T21:44:30.876Z,100067.58
2017-11-12T21:47:06.057Z,100069.49
2017-11-12T21:49:41.077Z,100073.12
2017-11-12T21:52:16.001Z,100068.04
2017-11-12T21:54:51.069Z,100073.50
2017-11-12T21:57:26.437Z,100063.13
2017-11-12T22:00:00.969Z,100075.16
2017-11-12T22:02:35.869Z,100078.64
2017-11-12T22:05:10.832Z,100081.89
2017-11-12T22:07:45.790Z,100092.16
2017-11-12T22:10:20.965Z,100100.41
2017-11-12T22:12:55.854Z,100095.95
2017-11-12T22:15:30.705Z,100101.73
2017-11-12T22:18:05.934Z,100095.84
2017-11-12T22:20:40.771Z,100110.34
2017-11-12T22:23:15.557Z,100114.54
2017-11-12T22:25:50.503Z,100116.20
2017-11-12T22:28:25.308Z,100127.12
2017-11-12T22:31:00.216Z,100125.23
2017-11-12T22:33:35.152Z,100143.19
2017-11-12T22:36:10.115Z,100147.44
2017-11-12T22:38:45.309Z,100148.92
2017-11-12T22:41:20.324Z,100159.84
2017-11-12T22:43:55.384Z,100161.82
2017-11-12T22:46:30.537Z,100166.20
2017-11-12T22:49:05.840Z,100175.56
2017-11-12T22:51:40.927Z,100179.63
2017-11-12T22:54:15.352Z,100180.52
2017-11-12T22:56:50.351Z,100184.03
2017-11-12T22:59:25.559Z,100182.13
2017-11-12T23:02:00.553Z,100191.42
2017-11-12T23:04:35.896Z,100188.36
2017-11-12T23:07:11.092Z,100190.20
2017-11-12T23:09:46.248Z,100187.91
2017-11-12T23:12:21.136Z,100191.42
2017-11-12T23:14:55.956Z,100198.03
2017-11-12T23:17:30.780Z,100202.59
2017-11-12T23:20:05.515Z,100205.53
2017-11-12T23:22:40.548Z,100192.98
2017-11-12T23:25:15.240Z,100208.77
2017-11-12T23:27:50.238Z,100201.45
2017-11-12T23:30:25.821Z,100201.70
2017-11-12T23:33:00.537Z,100208.30
2017-11-12T23:35:35.378Z,100212.90
2017-11-12T23:38:10.310Z,100209.46
2017-11-12T23:40:45.081Z,100209.83
2017-11-12T23:43:20.188Z,100215.04
2017-11-12T23:45:55.119Z,100217.50
2017-11-12T23:48:29.949Z,100219.90
2017-11-12T23:51:05.096Z,100217.75
2017-11-12T23:53:40.329Z,100220.45
2017-11-12T23:56:15.480Z,100214.65
2017-11-12T23:58:50.713Z,100214.59
